TFM - Tactical Decision Aid
ID: Runway Winds: CIG/VIS Threshold:

KDTW - Detroit Metro/Wayne, MI, US

Updated at: 2036 UTC 17 Jun 2019
Latest TAF at: 1741 UTC 17 Jun 2019

TAF Board

Time1953Z 17/21Z 17/22Z 17/23Z 18/00Z 18/01Z 18/02Z 18/03Z 18/04Z 18/05Z 18/06Z 18/07Z 18/08Z 18/09Z>>
Type OBS PRVL PRVL PRVL PRVL PRVL PRVL PRVL PRVL PRVL PRVL PRVL PRVL PRVL
VIS 10 >6 >6 >6 >6 >6 >6 >6 >6 >6 >6 >6 >6 >6
CIG 31 35 35 35 35 35 40 40 40 40 40 40 40 40
Cover OVC OVC OVC OVC OVC OVC OVC OVC OVC OVC OVC OVC OVC OVC
FltCat VFR VFR VFR VFR VFR VFR VFR VFR VFR VFR VFR VFR VFR VFR
WX -- -- -- -- -- -- -- -- -- -- -- -- -- --
WDir 120 110 110 110 110 110 VRB VRB VRB VRB VRB VRB 30 30
WSpd 3 7 7 7 7 7 3 3 3 3 3 3 5 5
WGst -- -- -- -- -- -- -- -- -- -- -- -- -- --

TDA Impact Legend

  None Marginal Slight Moderate High
Visibility (sm) >5 3≤X≤5 1≤X<3 0.5≤X<1 <0.5
Ceiling (100 ft) >30 10≤X≤30 4≤X<10 2≤X<4 <2
Wind Speed (kt) <15 15≤X<25 25≤X<30 ≥30
Wind Gust (kt) <15 15≤X<25 25≤X<35 ≥35
Weather No Wx Reported VCTS -TS,-FZRA TS,FZRA +TS,+FZRA
TAF
KDTW 171741Z 1718/1824 13005KT P6SM OVC035
  FM172000 11007KT P6SM OVC035
  FM180200 VRB03KT P6SM BKN040 OVC250
  FM180800 03005KT P6SM SCT025 OVC040
  FM181400 07005KT P6SM BKN040


METAR
KDTW 171953Z 12003KT 10SM OVC031 21/12 A3001 RMK AO2 SLP160 T02110122
KDTW 171853Z 20003KT 10SM OVC030 21/12 A3002 RMK AO2 SLP163 T02110122
KDTW 171753Z VRB04KT 10SM OVC030 21/12 A3002 RMK AO2 SLP165 T02110122 10211 20144 50007

Radar Display
Forecast Discussion